sensor_id;sensor_type;location;lat;lon;timestamp;P1;durP1;ratioP1;P2;durP2;ratioP2
8532;SDS011;4304;53.876;10.662;2023-05-07T00:01:03;4.90;;;3.63;;
8532;SDS011;4304;53.876;10.662;2023-05-07T00:03:30;6.03;;;3.88;;
8532;SDS011;4304;53.876;10.662;2023-05-07T00:05:58;5.07;;;3.42;;
8532;SDS011;4304;53.876;10.662;2023-05-07T00:10:50;3.72;;;2.20;;
8532;SDS011;4304;53.876;10.662;2023-05-07T00:13:24;3.67;;;2.25;;
8532;SDS011;4304;53.876;10.662;2023-05-07T00:16:03;5.20;;;2.70;;
8532;SDS011;4304;53.876;10.662;2023-05-07T00:18:32;4.35;;;2.65;;
8532;SDS011;4304;53.876;10.662;2023-05-07T00:23:23;2.80;;;2.30;;
8532;SDS011;4304;53.876;10.662;2023-05-07T00:25:49;5.57;;;3.92;;
8532;SDS011;4304;53.876;10.662;2023-05-07T00:28:15;7.82;;;2.75;;
8532;SDS011;4304;53.876;10.662;2023-05-07T00:33:06;3.42;;;1.83;;
8532;SDS011;4304;53.876;10.662;2023-05-07T00:37:57;4.78;;;3.20;;
8532;SDS011;4304;53.876;10.662;2023-05-07T00:40:22;6.15;;;4.53;;
8532;SDS011;4304;53.876;10.662;2023-05-07T00:45:14;4.45;;;3.38;;
8532;SDS011;4304;53.876;10.662;2023-05-07T00:47:41;5.50;;;3.50;;
8532;SDS011;4304;53.876;10.662;2023-05-07T00:50:09;6.18;;;2.88;;
8532;SDS011;4304;53.876;10.662;2023-05-07T00:52:36;17.85;;;4.20;;
8532;SDS011;4304;53.876;10.662;2023-05-07T00:55:05;4.32;;;3.03;;
8532;SDS011;4304;53.876;10.662;2023-05-07T00:57:37;8.50;;;3.67;;
8532;SDS011;4304;53.876;10.662;2023-05-07T01:00:09;6.72;;;4.03;;
8532;SDS011;4304;53.876;10.662;2023-05-07T01:02:35;4.07;;;2.45;;
8532;SDS011;4304;53.876;10.662;2023-05-07T01:05:01;6.00;;;3.05;;
8532;SDS011;4304;53.876;10.662;2023-05-07T01:07:31;3.85;;;2.25;;
8532;SDS011;4304;53.876;10.662;2023-05-07T01:09:58;3.08;;;2.05;;
8532;SDS011;4304;53.876;10.662;2023-05-07T01:12:25;5.13;;;4.25;;
8532;SDS011;4304;53.876;10.662;2023-05-07T01:14:52;6.30;;;2.80;;
8532;SDS011;4304;53.876;10.662;2023-05-07T01:17:19;5.35;;;3.00;;
8532;SDS011;4304;53.876;10.662;2023-05-07T01:19:45;7.53;;;4.25;;
8532;SDS011;4304;53.876;10.662;2023-05-07T01:22:13;6.85;;;2.95;;
8532;SDS011;4304;53.876;10.662;2023-05-07T01:24:41;4.88;;;2.75;;
8532;SDS011;4304;53.876;10.662;2023-05-07T01:27:08;5.43;;;2.90;;
8532;SDS011;4304;53.876;10.662;2023-05-07T01:32:00;6.20;;;3.40;;
8532;SDS011;4304;53.876;10.662;2023-05-07T01:34:28;8.05;;;3.15;;
8532;SDS011;4304;53.876;10.662;2023-05-07T01:36:56;5.28;;;2.35;;
8532;SDS011;4304;53.876;10.662;2023-05-07T01:39:25;7.32;;;4.38;;
8532;SDS011;4304;53.876;10.662;2023-05-07T01:41:53;4.90;;;2.95;;
8532;SDS011;4304;53.876;10.662;2023-05-07T01:44:21;5.10;;;3.92;;
8532;SDS011;4304;53.876;10.662;2023-05-07T01:46:47;5.18;;;1.98;;
8532;SDS011;4304;53.876;10.662;2023-05-07T01:51:38;3.47;;;1.42;;
8532;SDS011;4304;53.876;10.662;2023-05-07T01:54:05;4.28;;;3.30;;
8532;SDS011;4304;53.876;10.662;2023-05-07T01:56:31;3.25;;;1.75;;
8532;SDS011;4304;53.876;10.662;2023-05-07T02:01:23;2.65;;;1.70;;
8532;SDS011;4304;53.876;10.662;2023-05-07T02:06:15;4.22;;;2.38;;
8532;SDS011;4304;53.876;10.662;2023-05-07T02:11:06;4.13;;;2.08;;
8532;SDS011;4304;53.876;10.662;2023-05-07T02:15:59;1.27;;;1.05;;
8532;SDS011;4304;53.876;10.662;2023-05-07T02:18:25;1.95;;;1.35;;
8532;SDS011;4304;53.876;10.662;2023-05-07T02:20:52;3.55;;;2.28;;
8532;SDS011;4304;53.876;10.662;2023-05-07T02:25:43;2.28;;;1.15;;
8532;SDS011;4304;53.876;10.662;2023-05-07T02:28:09;2.60;;;1.23;;
8532;SDS011;4304;53.876;10.662;2023-05-07T02:30:36;3.85;;;2.10;;
8532;SDS011;4304;53.876;10.662;2023-05-07T02:33:02;5.07;;;3.05;;
8532;SDS011;4304;53.876;10.662;2023-05-07T02:37:53;2.17;;;1.48;;
8532;SDS011;4304;53.876;10.662;2023-05-07T02:42:44;3.92;;;2.17;;
8532;SDS011;4304;53.876;10.662;2023-05-07T02:47:36;2.28;;;1.65;;
8532;SDS011;4304;53.876;10.662;2023-05-07T02:50:04;5.05;;;2.35;;
8532;SDS011;4304;53.876;10.662;2023-05-07T02:52:31;4.72;;;2.50;;
8532;SDS011;4304;53.876;10.662;2023-05-07T02:57:22;2.45;;;1.30;;
8532;SDS011;4304;53.876;10.662;2023-05-07T03:02:13;2.88;;;2.28;;
8532;SDS011;4304;53.876;10.662;2023-05-07T03:04:39;6.55;;;2.47;;
8532;SDS011;4304;53.876;10.662;2023-05-07T03:07:05;5.15;;;2.40;;
8532;SDS011;4304;53.876;10.662;2023-05-07T03:11:58;4.72;;;2.58;;
8532;SDS011;4304;53.876;10.662;2023-05-07T03:14:26;4.90;;;2.92;;
8532;SDS011;4304;53.876;10.662;2023-05-07T03:16:52;5.72;;;4.32;;
8532;SDS011;4304;53.876;10.662;2023-05-07T03:21:44;3.10;;;1.98;;
8532;SDS011;4304;53.876;10.662;2023-05-07T03:24:18;7.95;;;2.08;;
8532;SDS011;4304;53.876;10.662;2023-05-07T03:26:52;7.28;;;4.05;;
8532;SDS011;4304;53.876;10.662;2023-05-07T03:31:43;4.43;;;2.77;;
8532;SDS011;4304;53.876;10.662;2023-05-07T03:36:34;5.40;;;3.47;;
8532;SDS011;4304;53.876;10.662;2023-05-07T03:38:59;5.05;;;3.67;;
8532;SDS011;4304;53.876;10.662;2023-05-07T03:43:50;5.65;;;2.55;;
8532;SDS011;4304;53.876;10.662;2023-05-07T03:48:41;2.93;;;1.90;;
8532;SDS011;4304;53.876;10.662;2023-05-07T03:53:32;3.13;;;2.53;;
8532;SDS011;4304;53.876;10.662;2023-05-07T03:58:22;5.23;;;2.30;;
8532;SDS011;4304;53.876;10.662;2023-05-07T04:03:13;5.40;;;2.07;;
8532;SDS011;4304;53.876;10.662;2023-05-07T04:05:39;3.55;;;2.72;;
8532;SDS011;4304;53.876;10.662;2023-05-07T04:10:30;2.92;;;1.77;;
8532;SDS011;4304;53.876;10.662;2023-05-07T04:15:22;3.33;;;2.80;;
8532;SDS011;4304;53.876;10.662;2023-05-07T04:17:48;3.63;;;2.38;;
8532;SDS011;4304;53.876;10.662;2023-05-07T04:22:42;3.88;;;2.25;;
8532;SDS011;4304;53.876;10.662;2023-05-07T04:27:34;4.53;;;4.10;;
8532;SDS011;4304;53.876;10.662;2023-05-07T04:30:00;3.25;;;2.08;;
8532;SDS011;4304;53.876;10.662;2023-05-07T04:34:51;3.75;;;1.88;;
8532;SDS011;4304;53.876;10.662;2023-05-07T04:37:16;3.05;;;2.15;;
8532;SDS011;4304;53.876;10.662;2023-05-07T04:42:07;4.50;;;3.40;;
8532;SDS011;4304;53.876;10.662;2023-05-07T04:44:33;3.65;;;2.72;;
8532;SDS011;4304;53.876;10.662;2023-05-07T04:46:59;3.83;;;2.97;;
8532;SDS011;4304;53.876;10.662;2023-05-07T04:49:25;5.25;;;1.63;;
8532;SDS011;4304;53.876;10.662;2023-05-07T04:51:50;3.67;;;1.92;;
8532;SDS011;4304;53.876;10.662;2023-05-07T04:54:16;5.68;;;3.20;;
8532;SDS011;4304;53.876;10.662;2023-05-07T04:56:41;3.47;;;2.15;;
8532;SDS011;4304;53.876;10.662;2023-05-07T05:01:32;3.93;;;2.27;;
8532;SDS011;4304;53.876;10.662;2023-05-07T05:06:22;5.20;;;1.70;;
8532;SDS011;4304;53.876;10.662;2023-05-07T05:08:48;6.35;;;2.55;;
8532;SDS011;4304;53.876;10.662;2023-05-07T05:11:13;3.53;;;1.85;;
8532;SDS011;4304;53.876;10.662;2023-05-07T05:13:39;5.28;;;2.58;;
8532;SDS011;4304;53.876;10.662;2023-05-07T05:18:31;7.70;;;2.25;;
8532;SDS011;4304;53.876;10.662;2023-05-07T05:20:56;6.65;;;2.42;;
8532;SDS011;4304;53.876;10.662;2023-05-07T05:23:21;3.78;;;2.63;;
8532;SDS011;4304;53.876;10.662;2023-05-07T05:25:47;2.20;;;1.45;;
8532;SDS011;4304;53.876;10.662;2023-05-07T05:30:38;2.77;;;1.33;;
8532;SDS011;4304;53.876;10.662;2023-05-07T05:33:04;4.20;;;2.63;;
8532;SDS011;4304;53.876;10.662;2023-05-07T05:35:29;4.97;;;1.90;;
8532;SDS011;4304;53.876;10.662;2023-05-07T05:37:55;3.30;;;2.65;;
8532;SDS011;4304;53.876;10.662;2023-05-07T05:42:46;4.07;;;2.20;;
8532;SDS011;4304;53.876;10.662;2023-05-07T05:45:11;2.28;;;1.45;;
8532;SDS011;4304;53.876;10.662;2023-05-07T05:47:37;4.72;;;3.03;;
8532;SDS011;4304;53.876;10.662;2023-05-07T05:50:03;3.60;;;1.98;;
8532;SDS011;4304;53.876;10.662;2023-05-07T05:52:31;4.88;;;2.30;;
8532;SDS011;4304;53.876;10.662;2023-05-07T05:57:21;3.77;;;2.10;;
8532;SDS011;4304;53.876;10.662;2023-05-07T05:59:47;1.83;;;1.38;;
8532;SDS011;4304;53.876;10.662;2023-05-07T06:04:37;2.30;;;1.30;;
8532;SDS011;4304;53.876;10.662;2023-05-07T06:07:03;5.72;;;1.65;;
8532;SDS011;4304;53.876;10.662;2023-05-07T06:09:28;4.45;;;2.70;;
8532;SDS011;4304;53.876;10.662;2023-05-07T06:14:19;3.40;;;1.95;;
8532;SDS011;4304;53.876;10.662;2023-05-07T06:16:44;3.58;;;1.60;;
8532;SDS011;4304;53.876;10.662;2023-05-07T06:19:10;2.38;;;1.55;;
8532;SDS011;4304;53.876;10.662;2023-05-07T06:21:35;4.82;;;1.67;;
8532;SDS011;4304;53.876;10.662;2023-05-07T06:26:26;3.27;;;2.03;;
8532;SDS011;4304;53.876;10.662;2023-05-07T06:31:17;1.80;;;1.23;;
8532;SDS011;4304;53.876;10.662;2023-05-07T06:33:47;2.05;;;1.17;;
8532;SDS011;4304;53.876;10.662;2023-05-07T06:36:14;2.50;;;1.25;;
8532;SDS011;4304;53.876;10.662;2023-05-07T06:38:39;3.45;;;1.52;;
8532;SDS011;4304;53.876;10.662;2023-05-07T06:41:07;2.72;;;2.33;;
8532;SDS011;4304;53.876;10.662;2023-05-07T06:43:33;4.28;;;2.15;;
8532;SDS011;4304;53.876;10.662;2023-05-07T06:48:24;2.50;;;1.27;;
8532;SDS011;4304;53.876;10.662;2023-05-07T06:50:49;4.32;;;2.95;;
8532;SDS011;4304;53.876;10.662;2023-05-07T06:53:15;2.95;;;2.22;;
8532;SDS011;4304;53.876;10.662;2023-05-07T06:55:40;4.07;;;2.27;;
8532;SDS011;4304;53.876;10.662;2023-05-07T07:00:32;3.05;;;2.03;;
8532;SDS011;4304;53.876;10.662;2023-05-07T07:02:57;1.98;;;1.40;;
8532;SDS011;4304;53.876;10.662;2023-05-07T07:05:22;2.83;;;1.05;;
8532;SDS011;4304;53.876;10.662;2023-05-07T07:07:48;3.10;;;1.63;;
8532;SDS011;4304;53.876;10.662;2023-05-07T07:10:18;3.88;;;2.55;;
8532;SDS011;4304;53.876;10.662;2023-05-07T07:12:47;1.73;;;1.00;;
8532;SDS011;4304;53.876;10.662;2023-05-07T07:15:13;3.47;;;1.48;;
8532;SDS011;4304;53.876;10.662;2023-05-07T07:17:39;3.05;;;2.33;;
8532;SDS011;4304;53.876;10.662;2023-05-07T07:20:04;2.47;;;1.63;;
8532;SDS011;4304;53.876;10.662;2023-05-07T07:22:30;1.65;;;0.73;;
8532;SDS011;4304;53.876;10.662;2023-05-07T07:24:56;2.55;;;1.48;;
8532;SDS011;4304;53.876;10.662;2023-05-07T07:27:21;1.73;;;1.08;;
8532;SDS011;4304;53.876;10.662;2023-05-07T07:29:46;1.27;;;0.52;;
8532;SDS011;4304;53.876;10.662;2023-05-07T07:32:12;2.67;;;1.25;;
8532;SDS011;4304;53.876;10.662;2023-05-07T07:34:37;4.20;;;2.80;;
8532;SDS011;4304;53.876;10.662;2023-05-07T07:37:03;2.47;;;0.82;;
8532;SDS011;4304;53.876;10.662;2023-05-07T07:39:31;2.40;;;1.33;;
8532;SDS011;4304;53.876;10.662;2023-05-07T07:41:57;3.22;;;1.67;;
8532;SDS011;4304;53.876;10.662;2023-05-07T07:44:22;3.05;;;1.40;;
8532;SDS011;4304;53.876;10.662;2023-05-07T07:46:47;1.38;;;0.93;;
8532;SDS011;4304;53.876;10.662;2023-05-07T07:51:39;2.08;;;0.90;;
8532;SDS011;4304;53.876;10.662;2023-05-07T07:54:05;2.55;;;1.38;;
8532;SDS011;4304;53.876;10.662;2023-05-07T07:58:57;2.85;;;1.02;;
8532;SDS011;4304;53.876;10.662;2023-05-07T08:01:22;3.25;;;2.05;;
8532;SDS011;4304;53.876;10.662;2023-05-07T08:03:47;3.70;;;2.05;;
8532;SDS011;4304;53.876;10.662;2023-05-07T08:06:13;7.82;;;1.65;;
8532;SDS011;4304;53.876;10.662;2023-05-07T08:08:38;1.85;;;0.93;;
8532;SDS011;4304;53.876;10.662;2023-05-07T08:11:03;2.38;;;1.67;;
8532;SDS011;4304;53.876;10.662;2023-05-07T08:13:29;4.22;;;2.78;;
8532;SDS011;4304;53.876;10.662;2023-05-07T08:15:54;2.65;;;1.90;;
8532;SDS011;4304;53.876;10.662;2023-05-07T08:18:20;2.25;;;0.90;;
8532;SDS011;4304;53.876;10.662;2023-05-07T08:20:45;3.25;;;2.13;;
8532;SDS011;4304;53.876;10.662;2023-05-07T08:23:11;4.50;;;2.17;;
8532;SDS011;4304;53.876;10.662;2023-05-07T08:25:36;1.38;;;1.23;;
8532;SDS011;4304;53.876;10.662;2023-05-07T08:28:02;2.58;;;1.98;;
8532;SDS011;4304;53.876;10.662;2023-05-07T08:30:28;3.03;;;2.47;;
8532;SDS011;4304;53.876;10.662;2023-05-07T08:32:53;2.67;;;2.25;;
8532;SDS011;4304;53.876;10.662;2023-05-07T08:35:19;5.15;;;2.83;;
8532;SDS011;4304;53.876;10.662;2023-05-07T08:37:44;3.42;;;1.45;;
8532;SDS011;4304;53.876;10.662;2023-05-07T08:40:10;3.45;;;1.33;;
8532;SDS011;4304;53.876;10.662;2023-05-07T08:42:36;4.07;;;2.47;;
8532;SDS011;4304;53.876;10.662;2023-05-07T08:45:03;1.73;;;0.93;;
8532;SDS011;4304;53.876;10.662;2023-05-07T08:47:34;3.70;;;1.92;;
8532;SDS011;4304;53.876;10.662;2023-05-07T08:50:04;3.25;;;1.52;;
8532;SDS011;4304;53.876;10.662;2023-05-07T08:52:30;3.20;;;2.00;;
8532;SDS011;4304;53.876;10.662;2023-05-07T08:54:56;5.63;;;2.85;;
8532;SDS011;4304;53.876;10.662;2023-05-07T08:57:21;3.25;;;1.85;;
8532;SDS011;4304;53.876;10.662;2023-05-07T08:59:49;4.75;;;1.55;;
8532;SDS011;4304;53.876;10.662;2023-05-07T09:02:15;1.40;;;0.98;;
8532;SDS011;4304;53.876;10.662;2023-05-07T09:04:41;2.60;;;1.75;;
8532;SDS011;4304;53.876;10.662;2023-05-07T09:07:06;1.33;;;0.43;;
8532;SDS011;4304;53.876;10.662;2023-05-07T09:09:32;3.58;;;1.58;;
8532;SDS011;4304;53.876;10.662;2023-05-07T09:11:58;2.65;;;1.67;;
8532;SDS011;4304;53.876;10.662;2023-05-07T09:14:24;4.93;;;1.73;;
8532;SDS011;4304;53.876;10.662;2023-05-07T09:16:51;3.47;;;1.95;;
8532;SDS011;4304;53.876;10.662;2023-05-07T09:19:21;2.22;;;1.23;;
8532;SDS011;4304;53.876;10.662;2023-05-07T09:21:48;2.03;;;1.20;;
8532;SDS011;4304;53.876;10.662;2023-05-07T09:24:14;1.58;;;0.95;;
8532;SDS011;4304;53.876;10.662;2023-05-07T09:26:41;2.60;;;1.60;;
8532;SDS011;4304;53.876;10.662;2023-05-07T09:29:07;5.65;;;2.58;;
8532;SDS011;4304;53.876;10.662;2023-05-07T09:31:35;3.17;;;1.15;;
8532;SDS011;4304;53.876;10.662;2023-05-07T09:34:04;4.25;;;1.63;;
8532;SDS011;4304;53.876;10.662;2023-05-07T09:36:31;3.22;;;1.92;;
8532;SDS011;4304;53.876;10.662;2023-05-07T09:38:58;2.38;;;0.75;;
8532;SDS011;4304;53.876;10.662;2023-05-07T09:41:24;2.75;;;1.88;;
8532;SDS011;4304;53.876;10.662;2023-05-07T09:43:54;3.10;;;1.77;;
8532;SDS011;4304;53.876;10.662;2023-05-07T09:46:19;2.22;;;0.90;;
8532;SDS011;4304;53.876;10.662;2023-05-07T09:48:52;2.28;;;1.13;;
8532;SDS011;4304;53.876;10.662;2023-05-07T09:54:08;2.20;;;0.95;;
8532;SDS011;4304;53.876;10.662;2023-05-07T09:56:34;4.05;;;1.70;;
8532;SDS011;4304;53.876;10.662;2023-05-07T09:59:02;2.70;;;1.55;;
8532;SDS011;4304;53.876;10.662;2023-05-07T10:01:29;3.75;;;2.05;;
8532;SDS011;4304;53.876;10.662;2023-05-07T10:03:56;1.70;;;1.00;;
8532;SDS011;4304;53.876;10.662;2023-05-07T10:06:23;4.57;;;1.70;;
8532;SDS011;4304;53.876;10.662;2023-05-07T10:08:50;4.13;;;1.65;;
8532;SDS011;4304;53.876;10.662;2023-05-07T10:11:17;2.05;;;1.45;;
8532;SDS011;4304;53.876;10.662;2023-05-07T10:13:42;2.35;;;1.33;;
8532;SDS011;4304;53.876;10.662;2023-05-07T10:16:08;1.90;;;1.05;;
8532;SDS011;4304;53.876;10.662;2023-05-07T10:18:34;2.30;;;1.25;;
8532;SDS011;4304;53.876;10.662;2023-05-07T10:21:16;1.15;;;0.80;;
8532;SDS011;4304;53.876;10.662;2023-05-07T10:23:49;2.50;;;1.20;;
8532;SDS011;4304;53.876;10.662;2023-05-07T10:26:17;2.88;;;1.77;;
8532;SDS011;4304;53.876;10.662;2023-05-07T10:28:46;2.47;;;1.58;;
8532;SDS011;4304;53.876;10.662;2023-05-07T10:33:40;3.13;;;1.63;;
8532;SDS011;4304;53.876;10.662;2023-05-07T10:36:09;2.00;;;0.70;;
8532;SDS011;4304;53.876;10.662;2023-05-07T10:38:35;3.30;;;0.88;;
8532;SDS011;4304;53.876;10.662;2023-05-07T10:41:01;2.17;;;1.13;;
8532;SDS011;4304;53.876;10.662;2023-05-07T10:43:37;1.42;;;0.60;;
8532;SDS011;4304;53.876;10.662;2023-05-07T10:46:11;2.97;;;1.48;;
8532;SDS011;4304;53.876;10.662;2023-05-07T10:49:06;2.28;;;1.05;;
8532;SDS011;4304;53.876;10.662;2023-05-07T10:51:29;3.80;;;1.10;;
8532;SDS011;4304;53.876;10.662;2023-05-07T10:56:35;1.88;;;0.70;;
8532;SDS011;4304;53.876;10.662;2023-05-07T11:01:58;1.65;;;1.27;;
8532;SDS011;4304;53.876;10.662;2023-05-07T11:04:32;3.40;;;1.52;;
8532;SDS011;4304;53.876;10.662;2023-05-07T11:15:07;2.25;;;1.42;;
8532;SDS011;4304;53.876;10.662;2023-05-07T11:17:34;1.67;;;1.02;;
8532;SDS011;4304;53.876;10.662;2023-05-07T11:20:00;1.95;;;1.05;;
8532;SDS011;4304;53.876;10.662;2023-05-07T11:24:59;3.45;;;1.02;;
8532;SDS011;4304;53.876;10.662;2023-05-07T11:27:26;2.03;;;0.80;;
8532;SDS011;4304;53.876;10.662;2023-05-07T11:29:51;0.90;;;0.52;;
8532;SDS011;4304;53.876;10.662;2023-05-07T11:32:27;2.38;;;1.23;;
8532;SDS011;4304;53.876;10.662;2023-05-07T11:34:54;1.75;;;0.93;;
8532;SDS011;4304;53.876;10.662;2023-05-07T11:37:21;1.38;;;0.77;;
8532;SDS011;4304;53.876;10.662;2023-05-07T11:39:47;1.90;;;0.80;;
8532;SDS011;4304;53.876;10.662;2023-05-07T11:42:28;1.98;;;0.82;;
8532;SDS011;4304;53.876;10.662;2023-05-07T11:44:55;2.45;;;0.98;;
8532;SDS011;4304;53.876;10.662;2023-05-07T11:47:20;2.22;;;1.02;;
8532;SDS011;4304;53.876;10.662;2023-05-07T11:49:47;2.15;;;0.80;;
8532;SDS011;4304;53.876;10.662;2023-05-07T11:52:14;6.65;;;2.58;;
8532;SDS011;4304;53.876;10.662;2023-05-07T11:54:40;1.45;;;0.52;;
8532;SDS011;4304;53.876;10.662;2023-05-07T11:57:05;1.55;;;0.80;;
8532;SDS011;4304;53.876;10.662;2023-05-07T11:59:38;2.58;;;1.02;;
8532;SDS011;4304;53.876;10.662;2023-05-07T12:02:05;2.05;;;0.85;;
8532;SDS011;4304;53.876;10.662;2023-05-07T12:04:33;1.65;;;1.08;;
8532;SDS011;4304;53.876;10.662;2023-05-07T12:06:58;2.72;;;1.30;;
8532;SDS011;4304;53.876;10.662;2023-05-07T12:09:24;1.25;;;0.45;;
8532;SDS011;4304;53.876;10.662;2023-05-07T12:11:49;1.25;;;0.40;;
8532;SDS011;4304;53.876;10.662;2023-05-07T12:14:16;1.98;;;0.90;;
8532;SDS011;4304;53.876;10.662;2023-05-07T12:16:42;1.17;;;0.68;;
8532;SDS011;4304;53.876;10.662;2023-05-07T12:19:09;2.28;;;1.10;;
8532;SDS011;4304;53.876;10.662;2023-05-07T12:21:37;1.88;;;0.80;;
8532;SDS011;4304;53.876;10.662;2023-05-07T12:24:04;9.45;;;0.90;;
8532;SDS011;4304;53.876;10.662;2023-05-07T12:26:30;1.55;;;0.75;;
8532;SDS011;4304;53.876;10.662;2023-05-07T12:28:56;2.72;;;0.68;;
8532;SDS011;4304;53.876;10.662;2023-05-07T12:31:22;1.13;;;0.80;;
8532;SDS011;4304;53.876;10.662;2023-05-07T12:33:50;0.95;;;0.50;;
8532;SDS011;4304;53.876;10.662;2023-05-07T12:36:15;1.25;;;0.57;;
8532;SDS011;4304;53.876;10.662;2023-05-07T12:38:41;1.42;;;0.52;;
8532;SDS011;4304;53.876;10.662;2023-05-07T12:41:09;1.80;;;1.00;;
8532;SDS011;4304;53.876;10.662;2023-05-07T12:43:39;1.98;;;0.50;;
8532;SDS011;4304;53.876;10.662;2023-05-07T12:46:05;4.70;;;0.95;;
8532;SDS011;4304;53.876;10.662;2023-05-07T12:48:32;1.38;;;0.57;;
8532;SDS011;4304;53.876;10.662;2023-05-07T12:50:58;1.90;;;0.90;;
8532;SDS011;4304;53.876;10.662;2023-05-07T12:53:26;1.83;;;0.80;;
8532;SDS011;4304;53.876;10.662;2023-05-07T12:55:53;2.17;;;0.60;;
8532;SDS011;4304;53.876;10.662;2023-05-07T13:00:50;1.30;;;0.50;;
8532;SDS011;4304;53.876;10.662;2023-05-07T13:08:24;1.23;;;0.73;;
8532;SDS011;4304;53.876;10.662;2023-05-07T13:11:01;1.20;;;0.70;;
8532;SDS011;4304;53.876;10.662;2023-05-07T13:13:32;3.65;;;1.33;;
8532;SDS011;4304;53.876;10.662;2023-05-07T13:16:01;2.22;;;1.15;;
8532;SDS011;4304;53.876;10.662;2023-05-07T13:18:28;6.40;;;1.52;;
8532;SDS011;4304;53.876;10.662;2023-05-07T13:20:55;2.55;;;1.80;;
8532;SDS011;4304;53.876;10.662;2023-05-07T13:23:20;2.72;;;1.65;;
8532;SDS011;4304;53.876;10.662;2023-05-07T13:25:46;2.72;;;1.30;;
8532;SDS011;4304;53.876;10.662;2023-05-07T13:28:12;4.65;;;0.88;;
8532;SDS011;4304;53.876;10.662;2023-05-07T13:30:37;5.00;;;1.30;;
8532;SDS011;4304;53.876;10.662;2023-05-07T13:33:03;1.90;;;0.95;;
8532;SDS011;4304;53.876;10.662;2023-05-07T13:35:28;1.83;;;0.80;;
8532;SDS011;4304;53.876;10.662;2023-05-07T13:37:54;3.70;;;0.98;;
8532;SDS011;4304;53.876;10.662;2023-05-07T13:40:20;2.33;;;1.10;;
8532;SDS011;4304;53.876;10.662;2023-05-07T13:42:46;1.45;;;0.70;;
8532;SDS011;4304;53.876;10.662;2023-05-07T13:45:12;2.55;;;0.80;;
8532;SDS011;4304;53.876;10.662;2023-05-07T13:47:39;1.45;;;0.75;;
8532;SDS011;4304;53.876;10.662;2023-05-07T13:50:05;1.75;;;0.80;;
8532;SDS011;4304;53.876;10.662;2023-05-07T13:52:32;2.33;;;1.10;;
8532;SDS011;4304;53.876;10.662;2023-05-07T13:54:57;3.13;;;1.25;;
8532;SDS011;4304;53.876;10.662;2023-05-07T13:57:23;2.53;;;1.00;;
8532;SDS011;4304;53.876;10.662;2023-05-07T13:59:49;0.70;;;0.50;;
8532;SDS011;4304;53.876;10.662;2023-05-07T14:02:14;1.48;;;0.60;;
8532;SDS011;4304;53.876;10.662;2023-05-07T14:04:40;2.67;;;1.23;;
8532;SDS011;4304;53.876;10.662;2023-05-07T14:07:05;4.13;;;1.17;;
8532;SDS011;4304;53.876;10.662;2023-05-07T14:09:31;1.10;;;0.55;;
8532;SDS011;4304;53.876;10.662;2023-05-07T14:11:56;3.85;;;1.00;;
8532;SDS011;4304;53.876;10.662;2023-05-07T14:14:21;2.70;;;1.02;;
8532;SDS011;4304;53.876;10.662;2023-05-07T14:16:47;2.58;;;1.38;;
8532;SDS011;4304;53.876;10.662;2023-05-07T14:19:12;1.17;;;0.65;;
8532;SDS011;4304;53.876;10.662;2023-05-07T14:21:38;2.58;;;1.15;;
8532;SDS011;4304;53.876;10.662;2023-05-07T14:24:03;2.03;;;1.17;;
8532;SDS011;4304;53.876;10.662;2023-05-07T14:26:30;2.72;;;1.25;;
8532;SDS011;4304;53.876;10.662;2023-05-07T14:28:56;1.73;;;1.00;;
8532;SDS011;4304;53.876;10.662;2023-05-07T14:31:23;3.63;;;1.45;;
8532;SDS011;4304;53.876;10.662;2023-05-07T14:33:49;5.13;;;0.98;;
8532;SDS011;4304;53.876;10.662;2023-05-07T14:36:15;3.78;;;1.45;;
8532;SDS011;4304;53.876;10.662;2023-05-07T14:38:41;1.98;;;1.17;;
8532;SDS011;4304;53.876;10.662;2023-05-07T14:41:07;1.90;;;0.85;;
8532;SDS011;4304;53.876;10.662;2023-05-07T14:43:32;1.63;;;0.80;;
8532;SDS011;4304;53.876;10.662;2023-05-07T14:45:58;2.35;;;0.80;;
8532;SDS011;4304;53.876;10.662;2023-05-07T14:48:23;1.80;;;0.95;;
8532;SDS011;4304;53.876;10.662;2023-05-07T14:50:48;3.22;;;1.08;;
8532;SDS011;4304;53.876;10.662;2023-05-07T14:53:14;1.30;;;0.60;;
8532;SDS011;4304;53.876;10.662;2023-05-07T14:55:40;2.92;;;1.35;;
8532;SDS011;4304;53.876;10.662;2023-05-07T14:58:06;1.75;;;1.10;;
8532;SDS011;4304;53.876;10.662;2023-05-07T15:00:31;2.08;;;0.88;;
8532;SDS011;4304;53.876;10.662;2023-05-07T15:03:01;2.25;;;0.85;;
8532;SDS011;4304;53.876;10.662;2023-05-07T15:05:31;2.72;;;1.20;;
8532;SDS011;4304;53.876;10.662;2023-05-07T15:07:56;2.40;;;1.02;;
8532;SDS011;4304;53.876;10.662;2023-05-07T15:10:21;2.03;;;1.00;;
8532;SDS011;4304;53.876;10.662;2023-05-07T15:12:47;7.55;;;0.88;;
8532;SDS011;4304;53.876;10.662;2023-05-07T15:15:12;2.72;;;1.00;;
8532;SDS011;4304;53.876;10.662;2023-05-07T15:17:38;2.95;;;1.00;;
8532;SDS011;4304;53.876;10.662;2023-05-07T15:20:03;1.40;;;0.70;;
8532;SDS011;4304;53.876;10.662;2023-05-07T15:22:29;2.53;;;1.23;;
8532;SDS011;4304;53.876;10.662;2023-05-07T15:24:55;2.53;;;1.30;;
8532;SDS011;4304;53.876;10.662;2023-05-07T15:27:21;3.15;;;1.85;;
8532;SDS011;4304;53.876;10.662;2023-05-07T15:29:47;2.10;;;1.27;;
8532;SDS011;4304;53.876;10.662;2023-05-07T15:32:12;3.92;;;1.08;;
8532;SDS011;4304;53.876;10.662;2023-05-07T15:34:38;4.95;;;1.27;;
8532;SDS011;4304;53.876;10.662;2023-05-07T15:37:03;2.13;;;1.00;;
8532;SDS011;4304;53.876;10.662;2023-05-07T15:39:29;2.15;;;1.65;;
8532;SDS011;4304;53.876;10.662;2023-05-07T15:41:55;2.13;;;1.02;;
8532;SDS011;4304;53.876;10.662;2023-05-07T15:44:20;2.40;;;1.60;;
8532;SDS011;4304;53.876;10.662;2023-05-07T15:46:46;2.80;;;1.35;;
8532;SDS011;4304;53.876;10.662;2023-05-07T15:49:11;3.67;;;0.93;;
8532;SDS011;4304;53.876;10.662;2023-05-07T15:51:37;5.18;;;2.78;;
8532;SDS011;4304;53.876;10.662;2023-05-07T15:54:02;2.97;;;1.60;;
8532;SDS011;4304;53.876;10.662;2023-05-07T15:56:28;2.10;;;1.25;;
8532;SDS011;4304;53.876;10.662;2023-05-07T15:58:57;3.53;;;1.02;;
8532;SDS011;4304;53.876;10.662;2023-05-07T16:01:22;2.65;;;1.15;;
8532;SDS011;4304;53.876;10.662;2023-05-07T16:03:48;1.88;;;1.05;;
8532;SDS011;4304;53.876;10.662;2023-05-07T16:06:13;2.42;;;1.20;;
8532;SDS011;4304;53.876;10.662;2023-05-07T16:08:38;1.33;;;0.68;;
8532;SDS011;4304;53.876;10.662;2023-05-07T16:11:05;9.13;;;1.23;;
8532;SDS011;4304;53.876;10.662;2023-05-07T16:13:30;2.72;;;1.42;;
8532;SDS011;4304;53.876;10.662;2023-05-07T16:15:56;1.83;;;1.02;;
8532;SDS011;4304;53.876;10.662;2023-05-07T16:18:25;1.85;;;1.02;;
8532;SDS011;4304;53.876;10.662;2023-05-07T16:20:50;3.03;;;1.15;;
8532;SDS011;4304;53.876;10.662;2023-05-07T16:23:16;1.70;;;1.08;;
8532;SDS011;4304;53.876;10.662;2023-05-07T16:25:41;1.20;;;0.65;;
8532;SDS011;4304;53.876;10.662;2023-05-07T16:28:07;2.03;;;1.17;;
8532;SDS011;4304;53.876;10.662;2023-05-07T16:30:32;1.83;;;1.08;;
8532;SDS011;4304;53.876;10.662;2023-05-07T16:32:58;1.25;;;0.65;;
8532;SDS011;4304;53.876;10.662;2023-05-07T16:35:23;4.63;;;1.10;;
8532;SDS011;4304;53.876;10.662;2023-05-07T16:37:49;1.70;;;0.90;;
8532;SDS011;4304;53.876;10.662;2023-05-07T16:40:14;1.92;;;1.17;;
8532;SDS011;4304;53.876;10.662;2023-05-07T16:42:40;1.90;;;1.00;;
8532;SDS011;4304;53.876;10.662;2023-05-07T16:45:05;2.45;;;1.30;;
8532;SDS011;4304;53.876;10.662;2023-05-07T16:47:31;4.78;;;1.10;;
8532;SDS011;4304;53.876;10.662;2023-05-07T16:49:57;2.50;;;1.27;;
8532;SDS011;4304;53.876;10.662;2023-05-07T16:52:24;1.75;;;0.90;;
8532;SDS011;4304;53.876;10.662;2023-05-07T16:54:50;2.08;;;1.30;;
8532;SDS011;4304;53.876;10.662;2023-05-07T16:57:15;0.90;;;0.40;;
8532;SDS011;4304;53.876;10.662;2023-05-07T16:59:41;1.33;;;0.47;;
8532;SDS011;4304;53.876;10.662;2023-05-07T17:02:06;2.22;;;1.45;;
8532;SDS011;4304;53.876;10.662;2023-05-07T17:04:31;1.20;;;0.50;;
8532;SDS011;4304;53.876;10.662;2023-05-07T17:06:57;7.97;;;1.17;;
8532;SDS011;4304;53.876;10.662;2023-05-07T17:09:23;1.58;;;0.70;;
8532;SDS011;4304;53.876;10.662;2023-05-07T17:11:48;2.42;;;0.95;;
8532;SDS011;4304;53.876;10.662;2023-05-07T17:14:14;2.10;;;0.93;;
8532;SDS011;4304;53.876;10.662;2023-05-07T17:16:39;2.13;;;1.27;;